sensor_id;sensor_type;location;lat;lon;timestamp;temperature;humidity
17687;DHT22;8962;52.538;13.266;2022-11-15T00:02:37;6.60;99.90
17687;DHT22;8962;52.538;13.266;2022-11-15T00:05:26;6.60;99.90
17687;DHT22;8962;52.538;13.266;2022-11-15T00:08:12;6.60;99.90
17687;DHT22;8962;52.538;13.266;2022-11-15T00:11:00;6.60;99.90
17687;DHT22;8962;52.538;13.266;2022-11-15T00:13:46;6.60;99.90
17687;DHT22;8962;52.538;13.266;2022-11-15T00:16:33;6.60;99.90
17687;DHT22;8962;52.538;13.266;2022-11-15T00:19:19;6.70;99.90
17687;DHT22;8962;52.538;13.266;2022-11-15T00:22:04;6.70;99.90
17687;DHT22;8962;52.538;13.266;2022-11-15T00:24:54;6.70;99.90
17687;DHT22;8962;52.538;13.266;2022-11-15T00:27:41;6.70;99.90
17687;DHT22;8962;52.538;13.266;2022-11-15T00:30:27;6.60;99.90
17687;DHT22;8962;52.538;13.266;2022-11-15T00:33:13;6.60;99.90
17687;DHT22;8962;52.538;13.266;2022-11-15T00:36:05;6.60;99.90
17687;DHT22;8962;52.538;13.266;2022-11-15T00:38:52;6.60;99.90
17687;DHT22;8962;52.538;13.266;2022-11-15T00:41:42;6.60;99.90
17687;DHT22;8962;52.538;13.266;2022-11-15T00:44:29;6.60;99.90
17687;DHT22;8962;52.538;13.266;2022-11-15T00:47:15;6.60;99.90
17687;DHT22;8962;52.538;13.266;2022-11-15T00:50:02;6.50;99.90
17687;DHT22;8962;52.538;13.266;2022-11-15T00:52:48;6.50;99.90
17687;DHT22;8962;52.538;13.266;2022-11-15T00:55:34;6.50;99.90
17687;DHT22;8962;52.538;13.266;2022-11-15T00:58:22;6.50;99.90
17687;DHT22;8962;52.538;13.266;2022-11-15T01:01:09;6.50;99.90
17687;DHT22;8962;52.538;13.266;2022-11-15T01:03:55;6.50;99.90
17687;DHT22;8962;52.538;13.266;2022-11-15T01:06:41;6.50;99.90
17687;DHT22;8962;52.538;13.266;2022-11-15T01:09:26;6.50;99.90
17687;DHT22;8962;52.538;13.266;2022-11-15T01:12:12;6.50;99.90
17687;DHT22;8962;52.538;13.266;2022-11-15T01:15:00;6.40;99.90
17687;DHT22;8962;52.538;13.266;2022-11-15T01:17:46;6.50;99.90
17687;DHT22;8962;52.538;13.266;2022-11-15T01:20:31;6.50;99.90
17687;DHT22;8962;52.538;13.266;2022-11-15T01:23:17;6.50;99.90
17687;DHT22;8962;52.538;13.266;2022-11-15T01:26:05;6.40;99.90
17687;DHT22;8962;52.538;13.266;2022-11-15T01:28:51;6.40;99.90
17687;DHT22;8962;52.538;13.266;2022-11-15T01:31:38;6.50;99.90
17687;DHT22;8962;52.538;13.266;2022-11-15T01:34:24;6.50;99.90
17687;DHT22;8962;52.538;13.266;2022-11-15T01:37:10;6.40;99.90
17687;DHT22;8962;52.538;13.266;2022-11-15T01:39:56;6.40;99.90
17687;DHT22;8962;52.538;13.266;2022-11-15T01:42:41;6.40;99.90
17687;DHT22;8962;52.538;13.266;2022-11-15T01:45:28;6.40;99.90
17687;DHT22;8962;52.538;13.266;2022-11-15T01:48:15;6.40;99.90
17687;DHT22;8962;52.538;13.266;2022-11-15T01:51:04;6.40;99.90
17687;DHT22;8962;52.538;13.266;2022-11-15T01:53:55;6.40;99.90
17687;DHT22;8962;52.538;13.266;2022-11-15T01:56:45;6.40;99.90
17687;DHT22;8962;52.538;13.266;2022-11-15T01:59:32;6.30;99.90
17687;DHT22;8962;52.538;13.266;2022-11-15T02:02:19;6.30;99.90
17687;DHT22;8962;52.538;13.266;2022-11-15T02:05:07;6.30;99.90
17687;DHT22;8962;52.538;13.266;2022-11-15T02:07:54;6.30;99.90
17687;DHT22;8962;52.538;13.266;2022-11-15T02:10:40;6.30;99.90
17687;DHT22;8962;52.538;13.266;2022-11-15T02:13:26;6.30;99.90
17687;DHT22;8962;52.538;13.266;2022-11-15T02:16:22;6.30;99.90
17687;DHT22;8962;52.538;13.266;2022-11-15T02:19:22;6.40;99.90
17687;DHT22;8962;52.538;13.266;2022-11-15T02:22:27;6.40;99.90
17687;DHT22;8962;52.538;13.266;2022-11-15T02:25:36;6.40;99.90
17687;DHT22;8962;52.538;13.266;2022-11-15T02:28:41;6.40;99.90
17687;DHT22;8962;52.538;13.266;2022-11-15T02:31:38;6.40;99.90
17687;DHT22;8962;52.538;13.266;2022-11-15T02:34:35;6.40;99.90
17687;DHT22;8962;52.538;13.266;2022-11-15T02:37:32;6.40;99.90
17687;DHT22;8962;52.538;13.266;2022-11-15T02:40:34;6.40;99.90
17687;DHT22;8962;52.538;13.266;2022-11-15T02:43:29;6.40;99.90
17687;DHT22;8962;52.538;13.266;2022-11-15T02:46:38;6.50;99.90
17687;DHT22;8962;52.538;13.266;2022-11-15T02:49:46;6.60;99.90
17687;DHT22;8962;52.538;13.266;2022-11-15T02:52:33;6.50;99.90
17687;DHT22;8962;52.538;13.266;2022-11-15T02:55:28;6.70;99.90
17687;DHT22;8962;52.538;13.266;2022-11-15T02:58:35;6.60;99.90
17687;DHT22;8962;52.538;13.266;2022-11-15T03:01:34;6.50;99.90
17687;DHT22;8962;52.538;13.266;2022-11-15T03:04:29;6.50;99.90
17687;DHT22;8962;52.538;13.266;2022-11-15T03:07:27;6.50;99.90
17687;DHT22;8962;52.538;13.266;2022-11-15T03:10:20;6.60;99.90
17687;DHT22;8962;52.538;13.266;2022-11-15T03:13:19;6.50;99.90
17687;DHT22;8962;52.538;13.266;2022-11-15T03:16:09;6.50;99.90
17687;DHT22;8962;52.538;13.266;2022-11-15T03:18:59;6.70;99.90
17687;DHT22;8962;52.538;13.266;2022-11-15T03:21:47;6.70;99.90
17687;DHT22;8962;52.538;13.266;2022-11-15T03:24:35;6.90;99.90
17687;DHT22;8962;52.538;13.266;2022-11-15T03:27:24;6.70;99.90
17687;DHT22;8962;52.538;13.266;2022-11-15T03:30:11;6.60;99.90
17687;DHT22;8962;52.538;13.266;2022-11-15T03:33:01;6.60;99.90
17687;DHT22;8962;52.538;13.266;2022-11-15T03:35:52;6.60;99.90
17687;DHT22;8962;52.538;13.266;2022-11-15T03:38:42;6.60;99.90
17687;DHT22;8962;52.538;13.266;2022-11-15T03:41:34;6.50;99.90
17687;DHT22;8962;52.538;13.266;2022-11-15T03:44:31;6.60;99.90
17687;DHT22;8962;52.538;13.266;2022-11-15T03:47:24;6.60;99.90
17687;DHT22;8962;52.538;13.266;2022-11-15T03:50:17;6.60;99.90
17687;DHT22;8962;52.538;13.266;2022-11-15T03:53:03;6.60;99.90
17687;DHT22;8962;52.538;13.266;2022-11-15T03:55:52;6.70;99.90
17687;DHT22;8962;52.538;13.266;2022-11-15T03:58:37;6.70;99.90
17687;DHT22;8962;52.538;13.266;2022-11-15T04:01:23;6.60;99.90
17687;DHT22;8962;52.538;13.266;2022-11-15T04:04:09;6.60;99.90
17687;DHT22;8962;52.538;13.266;2022-11-15T04:06:57;6.60;99.90
17687;DHT22;8962;52.538;13.266;2022-11-15T04:09:43;6.60;99.90
17687;DHT22;8962;52.538;13.266;2022-11-15T04:12:49;6.50;99.90
17687;DHT22;8962;52.538;13.266;2022-11-15T04:15:35;6.60;99.90
17687;DHT22;8962;52.538;13.266;2022-11-15T04:18:23;6.70;99.90
17687;DHT22;8962;52.538;13.266;2022-11-15T04:21:09;6.70;99.90
17687;DHT22;8962;52.538;13.266;2022-11-15T04:24:12;6.70;99.90
17687;DHT22;8962;52.538;13.266;2022-11-15T04:26:59;6.70;99.90
17687;DHT22;8962;52.538;13.266;2022-11-15T04:29:45;6.70;99.90
17687;DHT22;8962;52.538;13.266;2022-11-15T04:32:31;6.70;99.90
17687;DHT22;8962;52.538;13.266;2022-11-15T04:35:17;6.70;99.90
17687;DHT22;8962;52.538;13.266;2022-11-15T04:38:07;6.70;99.90
17687;DHT22;8962;52.538;13.266;2022-11-15T04:40:53;6.60;99.90
17687;DHT22;8962;52.538;13.266;2022-11-15T04:43:40;6.60;99.90
17687;DHT22;8962;52.538;13.266;2022-11-15T04:46:27;6.70;99.90
17687;DHT22;8962;52.538;13.266;2022-11-15T04:49:13;6.70;99.90
17687;DHT22;8962;52.538;13.266;2022-11-15T04:51:59;6.70;99.90
17687;DHT22;8962;52.538;13.266;2022-11-15T04:54:44;6.70;99.90
17687;DHT22;8962;52.538;13.266;2022-11-15T04:57:33;6.60;99.90
17687;DHT22;8962;52.538;13.266;2022-11-15T05:00:20;6.60;99.90
17687;DHT22;8962;52.538;13.266;2022-11-15T05:03:09;6.70;99.90
17687;DHT22;8962;52.538;13.266;2022-11-15T05:06:12;6.80;99.90
17687;DHT22;8962;52.538;13.266;2022-11-15T05:08:58;6.80;99.90
17687;DHT22;8962;52.538;13.266;2022-11-15T05:11:43;6.80;99.90
17687;DHT22;8962;52.538;13.266;2022-11-15T05:14:30;6.90;99.90
17687;DHT22;8962;52.538;13.266;2022-11-15T05:17:15;6.90;99.90
17687;DHT22;8962;52.538;13.266;2022-11-15T05:20:04;6.90;99.90
17687;DHT22;8962;52.538;13.266;2022-11-15T05:22:50;6.80;99.90
17687;DHT22;8962;52.538;13.266;2022-11-15T05:25:36;6.90;99.90
17687;DHT22;8962;52.538;13.266;2022-11-15T05:28:22;6.80;99.90
17687;DHT22;8962;52.538;13.266;2022-11-15T05:31:09;6.70;99.90
17687;DHT22;8962;52.538;13.266;2022-11-15T05:33:56;6.70;99.90
17687;DHT22;8962;52.538;13.266;2022-11-15T05:36:45;6.60;99.90
17687;DHT22;8962;52.538;13.266;2022-11-15T05:39:31;6.70;99.90
17687;DHT22;8962;52.538;13.266;2022-11-15T05:42:17;6.70;99.90
17687;DHT22;8962;52.538;13.266;2022-11-15T05:45:04;6.70;99.90
17687;DHT22;8962;52.538;13.266;2022-11-15T05:47:52;6.90;99.90
17687;DHT22;8962;52.538;13.266;2022-11-15T05:50:42;6.80;99.90
17687;DHT22;8962;52.538;13.266;2022-11-15T05:53:30;6.80;99.90
17687;DHT22;8962;52.538;13.266;2022-11-15T05:56:16;6.80;99.90
17687;DHT22;8962;52.538;13.266;2022-11-15T05:59:04;6.70;99.90
17687;DHT22;8962;52.538;13.266;2022-11-15T06:01:51;6.70;99.90
17687;DHT22;8962;52.538;13.266;2022-11-15T06:04:39;6.80;99.90
17687;DHT22;8962;52.538;13.266;2022-11-15T06:07:24;6.90;99.90
17687;DHT22;8962;52.538;13.266;2022-11-15T06:10:12;6.90;99.90
17687;DHT22;8962;52.538;13.266;2022-11-15T06:12:58;6.80;99.90
17687;DHT22;8962;52.538;13.266;2022-11-15T06:15:44;6.80;99.90
17687;DHT22;8962;52.538;13.266;2022-11-15T06:18:32;6.70;99.90
17687;DHT22;8962;52.538;13.266;2022-11-15T06:21:18;6.70;99.90
17687;DHT22;8962;52.538;13.266;2022-11-15T06:24:05;6.70;99.90
17687;DHT22;8962;52.538;13.266;2022-11-15T06:26:53;6.70;99.90
17687;DHT22;8962;52.538;13.266;2022-11-15T06:29:38;6.70;99.90
17687;DHT22;8962;52.538;13.266;2022-11-15T06:32:24;6.60;99.90
17687;DHT22;8962;52.538;13.266;2022-11-15T06:35:10;6.70;99.90
17687;DHT22;8962;52.538;13.266;2022-11-15T06:37:56;6.70;99.90
17687;DHT22;8962;52.538;13.266;2022-11-15T06:40:48;6.70;99.90
17687;DHT22;8962;52.538;13.266;2022-11-15T06:43:36;6.60;99.90
17687;DHT22;8962;52.538;13.266;2022-11-15T06:46:21;6.60;99.90
17687;DHT22;8962;52.538;13.266;2022-11-15T06:49:07;6.60;99.90
17687;DHT22;8962;52.538;13.266;2022-11-15T06:51:52;6.60;99.90
17687;DHT22;8962;52.538;13.266;2022-11-15T06:54:38;6.60;99.90
17687;DHT22;8962;52.538;13.266;2022-11-15T06:57:24;6.70;99.90
17687;DHT22;8962;52.538;13.266;2022-11-15T07:00:12;6.80;99.90
17687;DHT22;8962;52.538;13.266;2022-11-15T07:03:01;6.70;99.90
17687;DHT22;8962;52.538;13.266;2022-11-15T07:05:51;6.80;99.90
17687;DHT22;8962;52.538;13.266;2022-11-15T07:08:38;6.80;99.90
17687;DHT22;8962;52.538;13.266;2022-11-15T07:11:26;6.90;99.90
17687;DHT22;8962;52.538;13.266;2022-11-15T07:14:13;6.90;99.90
17687;DHT22;8962;52.538;13.266;2022-11-15T07:16:59;6.80;99.90
17687;DHT22;8962;52.538;13.266;2022-11-15T07:19:45;6.90;99.90
17687;DHT22;8962;52.538;13.266;2022-11-15T07:22:31;6.90;99.90
17687;DHT22;8962;52.538;13.266;2022-11-15T07:25:17;6.90;99.90
17687;DHT22;8962;52.538;13.266;2022-11-15T07:28:03;7.10;99.90
17687;DHT22;8962;52.538;13.266;2022-11-15T07:30:48;7.20;99.90
17687;DHT22;8962;52.538;13.266;2022-11-15T07:33:38;7.10;99.90
17687;DHT22;8962;52.538;13.266;2022-11-15T07:36:24;7.10;99.90
17687;DHT22;8962;52.538;13.266;2022-11-15T07:39:09;7.30;99.90
17687;DHT22;8962;52.538;13.266;2022-11-15T07:41:56;7.30;99.90
17687;DHT22;8962;52.538;13.266;2022-11-15T07:44:56;7.40;99.90
17687;DHT22;8962;52.538;13.266;2022-11-15T07:47:45;7.30;99.90
17687;DHT22;8962;52.538;13.266;2022-11-15T07:50:32;7.30;99.90
17687;DHT22;8962;52.538;13.266;2022-11-15T07:53:18;7.30;99.90
17687;DHT22;8962;52.538;13.266;2022-11-15T07:56:06;7.30;99.90
17687;DHT22;8962;52.538;13.266;2022-11-15T07:58:52;7.40;99.90
17687;DHT22;8962;52.538;13.266;2022-11-15T08:01:38;7.40;99.90
17687;DHT22;8962;52.538;13.266;2022-11-15T08:04:25;7.40;99.90
17687;DHT22;8962;52.538;13.266;2022-11-15T08:07:13;7.40;99.90
17687;DHT22;8962;52.538;13.266;2022-11-15T08:09:59;7.50;99.90
17687;DHT22;8962;52.538;13.266;2022-11-15T08:12:45;7.60;99.90
17687;DHT22;8962;52.538;13.266;2022-11-15T08:15:32;7.60;99.90
17687;DHT22;8962;52.538;13.266;2022-11-15T08:18:19;7.70;99.90
17687;DHT22;8962;52.538;13.266;2022-11-15T08:21:05;8.00;99.90
17687;DHT22;8962;52.538;13.266;2022-11-15T08:23:52;8.00;99.90
17687;DHT22;8962;52.538;13.266;2022-11-15T08:26:38;8.00;99.90
17687;DHT22;8962;52.538;13.266;2022-11-15T08:29:23;8.10;99.90
17687;DHT22;8962;52.538;13.266;2022-11-15T08:32:11;8.20;99.90
17687;DHT22;8962;52.538;13.266;2022-11-15T08:34:57;8.20;99.90
17687;DHT22;8962;52.538;13.266;2022-11-15T08:37:43;8.20;99.90
17687;DHT22;8962;52.538;13.266;2022-11-15T08:40:30;8.30;99.90
17687;DHT22;8962;52.538;13.266;2022-11-15T08:43:17;8.40;99.90
17687;DHT22;8962;52.538;13.266;2022-11-15T08:46:02;8.50;99.90
17687;DHT22;8962;52.538;13.266;2022-11-15T08:48:48;8.60;99.90
17687;DHT22;8962;52.538;13.266;2022-11-15T08:51:34;8.70;99.90
17687;DHT22;8962;52.538;13.266;2022-11-15T08:54:19;8.80;99.90
17687;DHT22;8962;52.538;13.266;2022-11-15T08:57:07;8.90;99.90
17687;DHT22;8962;52.538;13.266;2022-11-15T08:59:53;9.00;99.90
17687;DHT22;8962;52.538;13.266;2022-11-15T09:02:39;9.10;99.90
17687;DHT22;8962;52.538;13.266;2022-11-15T09:05:26;9.10;99.90
17687;DHT22;8962;52.538;13.266;2022-11-15T09:08:11;9.20;99.90
17687;DHT22;8962;52.538;13.266;2022-11-15T09:11:02;9.30;99.90
17687;DHT22;8962;52.538;13.266;2022-11-15T09:13:50;9.30;99.90
17687;DHT22;8962;52.538;13.266;2022-11-15T09:16:37;9.50;99.90
17687;DHT22;8962;52.538;13.266;2022-11-15T09:19:22;9.60;99.90
17687;DHT22;8962;52.538;13.266;2022-11-15T09:22:08;9.60;99.90
17687;DHT22;8962;52.538;13.266;2022-11-15T09:24:55;9.70;99.90
17687;DHT22;8962;52.538;13.266;2022-11-15T09:27:41;9.80;99.90
17687;DHT22;8962;52.538;13.266;2022-11-15T09:30:29;9.90;99.90
17687;DHT22;8962;52.538;13.266;2022-11-15T09:33:15;9.90;99.90
17687;DHT22;8962;52.538;13.266;2022-11-15T09:36:01;10.00;99.90
17687;DHT22;8962;52.538;13.266;2022-11-15T09:38:48;10.10;99.90
17687;DHT22;8962;52.538;13.266;2022-11-15T09:45:13;10.10;99.90
17687;DHT22;8962;52.538;13.266;2022-11-15T09:51:27;10.20;99.90
17687;DHT22;8962;52.538;13.266;2022-11-15T09:54:02;10.30;99.90
17687;DHT22;8962;52.538;13.266;2022-11-15T09:56:31;10.40;99.90
17687;DHT22;8962;52.538;13.266;2022-11-15T09:59:19;10.50;99.90
17687;DHT22;8962;52.538;13.266;2022-11-15T10:01:57;10.60;99.90
17687;DHT22;8962;52.538;13.266;2022-11-15T10:04:29;10.60;99.90
17687;DHT22;8962;52.538;13.266;2022-11-15T10:07:01;10.70;99.90
17687;DHT22;8962;52.538;13.266;2022-11-15T10:09:35;10.80;99.90
17687;DHT22;8962;52.538;13.266;2022-11-15T10:12:03;10.80;99.90
17687;DHT22;8962;52.538;13.266;2022-11-15T10:14:31;10.80;99.90
17687;DHT22;8962;52.538;13.266;2022-11-15T10:17:17;11.00;99.90
17687;DHT22;8962;52.538;13.266;2022-11-15T10:20:06;11.00;99.90
17687;DHT22;8962;52.538;13.266;2022-11-15T10:22:39;11.10;99.90
17687;DHT22;8962;52.538;13.266;2022-11-15T10:25:30;11.20;99.90
17687;DHT22;8962;52.538;13.266;2022-11-15T10:28:00;11.20;99.90
17687;DHT22;8962;52.538;13.266;2022-11-15T10:30:34;11.20;99.90
17687;DHT22;8962;52.538;13.266;2022-11-15T10:33:17;11.20;99.90
17687;DHT22;8962;52.538;13.266;2022-11-15T10:35:48;11.30;99.90
17687;DHT22;8962;52.538;13.266;2022-11-15T10:38:15;11.30;99.90
17687;DHT22;8962;52.538;13.266;2022-11-15T10:40:42;11.40;99.90
17687;DHT22;8962;52.538;13.266;2022-11-15T10:43:16;11.40;99.90
17687;DHT22;8962;52.538;13.266;2022-11-15T10:45:45;11.40;99.90
17687;DHT22;8962;52.538;13.266;2022-11-15T10:48:24;11.40;99.90
17687;DHT22;8962;52.538;13.266;2022-11-15T10:50:55;11.50;99.90
17687;DHT22;8962;52.538;13.266;2022-11-15T10:53:28;11.60;99.90
17687;DHT22;8962;52.538;13.266;2022-11-15T10:56:01;11.60;99.90
17687;DHT22;8962;52.538;13.266;2022-11-15T10:58:34;11.60;99.90
17687;DHT22;8962;52.538;13.266;2022-11-15T11:01:18;11.60;99.90
17687;DHT22;8962;52.538;13.266;2022-11-15T11:03:58;11.70;99.90
17687;DHT22;8962;52.538;13.266;2022-11-15T11:06:31;11.70;99.90
17687;DHT22;8962;52.538;13.266;2022-11-15T11:09:09;11.80;99.90
17687;DHT22;8962;52.538;13.266;2022-11-15T11:11:50;11.80;99.90
17687;DHT22;8962;52.538;13.266;2022-11-15T11:14:21;11.90;99.90
17687;DHT22;8962;52.538;13.266;2022-11-15T11:16:51;11.90;99.90
17687;DHT22;8962;52.538;13.266;2022-11-15T11:19:39;11.90;99.90
17687;DHT22;8962;52.538;13.266;2022-11-15T11:22:17;11.90;99.90
17687;DHT22;8962;52.538;13.266;2022-11-15T11:25:09;12.00;99.90
17687;DHT22;8962;52.538;13.266;2022-11-15T11:27:47;12.10;99.90
17687;DHT22;8962;52.538;13.266;2022-11-15T11:30:24;12.10;99.90
17687;DHT22;8962;52.538;13.266;2022-11-15T11:33:12;12.20;99.90
17687;DHT22;8962;52.538;13.266;2022-11-15T11:35:49;12.20;99.90
17687;DHT22;8962;52.538;13.266;2022-11-15T11:38:39;12.30;99.90
17687;DHT22;8962;52.538;13.266;2022-11-15T11:41:31;12.30;99.90
17687;DHT22;8962;52.538;13.266;2022-11-15T11:44:21;12.40;99.90
17687;DHT22;8962;52.538;13.266;2022-11-15T11:46:55;12.40;99.90
17687;DHT22;8962;52.538;13.266;2022-11-15T11:49:30;12.50;99.90
17687;DHT22;8962;52.538;13.266;2022-11-15T11:52:03;12.50;99.90
17687;DHT22;8962;52.538;13.266;2022-11-15T11:54:48;12.60;99.90
17687;DHT22;8962;52.538;13.266;2022-11-15T11:57:27;12.60;99.90
17687;DHT22;8962;52.538;13.266;2022-11-15T12:00:00;12.60;99.90
17687;DHT22;8962;52.538;13.266;2022-11-15T12:02:40;12.70;99.90
17687;DHT22;8962;52.538;13.266;2022-11-15T12:05:13;12.70;99.90
17687;DHT22;8962;52.538;13.266;2022-11-15T12:07:43;12.80;99.90
17687;DHT22;8962;52.538;13.266;2022-11-15T12:10:20;12.80;99.90
17687;DHT22;8962;52.538;13.266;2022-11-15T12:12:55;12.80;99.90
17687;DHT22;8962;52.538;13.266;2022-11-15T12:15:28;12.90;99.90
17687;DHT22;8962;52.538;13.266;2022-11-15T12:18:01;12.90;99.90
17687;DHT22;8962;52.538;13.266;2022-11-15T12:20:32;12.90;99.90
17687;DHT22;8962;52.538;13.266;2022-11-15T12:23:06;12.90;99.90
17687;DHT22;8962;52.538;13.266;2022-11-15T12:25:50;13.00;99.90
17687;DHT22;8962;52.538;13.266;2022-11-15T12:28:25;13.00;99.90
17687;DHT22;8962;52.538;13.266;2022-11-15T12:31:03;13.00;99.90
17687;DHT22;8962;52.538;13.266;2022-11-15T12:33:35;13.00;99.90
17687;DHT22;8962;52.538;13.266;2022-11-15T12:36:04;13.00;99.90
17687;DHT22;8962;52.538;13.266;2022-11-15T12:38:54;13.00;99.90
17687;DHT22;8962;52.538;13.266;2022-11-15T12:41:25;13.10;99.90
17687;DHT22;8962;52.538;13.266;2022-11-15T12:43:54;13.10;99.90
17687;DHT22;8962;52.538;13.266;2022-11-15T12:47:00;13.20;99.90
17687;DHT22;8962;52.538;13.266;2022-11-15T12:49:45;13.20;99.90
17687;DHT22;8962;52.538;13.266;2022-11-15T12:52:14;13.30;99.90
17687;DHT22;8962;52.538;13.266;2022-11-15T12:54:57;13.30;99.90
17687;DHT22;8962;52.538;13.266;2022-11-15T12:57:39;13.40;99.90
17687;DHT22;8962;52.538;13.266;2022-11-15T13:06:34;13.40;99.90
17687;DHT22;8962;52.538;13.266;2022-11-15T13:12:56;13.40;99.90
17687;DHT22;8962;52.538;13.266;2022-11-15T13:15:53;13.40;99.90
17687;DHT22;8962;52.538;13.266;2022-11-15T13:18:37;13.40;99.90
17687;DHT22;8962;52.538;13.266;2022-11-15T13:21:21;13.40;99.90
17687;DHT22;8962;52.538;13.266;2022-11-15T13:24:25;13.40;99.90
17687;DHT22;8962;52.538;13.266;2022-11-15T13:26:53;13.50;99.90
17687;DHT22;8962;52.538;13.266;2022-11-15T13:29:26;13.40;99.90
17687;DHT22;8962;52.538;13.266;2022-11-15T13:31:53;13.40;99.90
17687;DHT22;8962;52.538;13.266;2022-11-15T13:34:26;13.40;99.90
17687;DHT22;8962;52.538;13.266;2022-11-15T13:36:54;13.40;99.90
17687;DHT22;8962;52.538;13.266;2022-11-15T13:39:28;13.40;99.90
17687;DHT22;8962;52.538;13.266;2022-11-15T13:41:57;13.40;99.90
17687;DHT22;8962;52.538;13.266;2022-11-15T13:44:27;13.30;99.90
17687;DHT22;8962;52.538;13.266;2022-11-15T13:47:05;13.30;99.90
17687;DHT22;8962;52.538;13.266;2022-11-15T13:49:35;13.20;99.90
17687;DHT22;8962;52.538;13.266;2022-11-15T13:52:06;13.20;99.90
17687;DHT22;8962;52.538;13.266;2022-11-15T13:54:39;13.20;99.90
17687;DHT22;8962;52.538;13.266;2022-11-15T13:57:11;13.10;99.90
17687;DHT22;8962;52.538;13.266;2022-11-15T13:59:48;13.10;99.90
17687;DHT22;8962;52.538;13.266;2022-11-15T14:02:18;13.10;99.90
17687;DHT22;8962;52.538;13.266;2022-11-15T14:04:49;13.00;99.90
17687;DHT22;8962;52.538;13.266;2022-11-15T14:07:19;13.00;99.90
17687;DHT22;8962;52.538;13.266;2022-11-15T14:09:46;13.10;99.90
17687;DHT22;8962;52.538;13.266;2022-11-15T14:12:31;13.00;99.90
17687;DHT22;8962;52.538;13.266;2022-11-15T14:15:02;13.00;99.90
17687;DHT22;8962;52.538;13.266;2022-11-15T14:17:48;12.90;99.90
17687;DHT22;8962;52.538;13.266;2022-11-15T14:20:26;12.90;99.90
17687;DHT22;8962;52.538;13.266;2022-11-15T14:22:58;12.80;99.90
17687;DHT22;8962;52.538;13.266;2022-11-15T14:25:27;12.80;99.90
17687;DHT22;8962;52.538;13.266;2022-11-15T14:28:15;12.80;99.90
17687;DHT22;8962;52.538;13.266;2022-11-15T14:30:45;12.70;99.90
17687;DHT22;8962;52.538;13.266;2022-11-15T14:33:21;12.70;99.90
17687;DHT22;8962;52.538;13.266;2022-11-15T14:35:49;12.70;99.90
17687;DHT22;8962;52.538;13.266;2022-11-15T14:38:16;12.60;99.90
17687;DHT22;8962;52.538;13.266;2022-11-15T14:40:43;12.50;99.90
17687;DHT22;8962;52.538;13.266;2022-11-15T14:43:11;12.50;99.90
17687;DHT22;8962;52.538;13.266;2022-11-15T14:45:38;12.40;99.90
17687;DHT22;8962;52.538;13.266;2022-11-15T14:48:09;12.30;99.90
17687;DHT22;8962;52.538;13.266;2022-11-15T14:50:36;12.20;99.90
17687;DHT22;8962;52.538;13.266;2022-11-15T14:53:05;12.20;99.90
17687;DHT22;8962;52.538;13.266;2022-11-15T14:55:38;12.10;99.90
17687;DHT22;8962;52.538;13.266;2022-11-15T14:58:07;12.00;99.90
17687;DHT22;8962;52.538;13.266;2022-11-15T15:00:36;11.90;99.90
17687;DHT22;8962;52.538;13.266;2022-11-15T15:03:04;11.80;99.90
17687;DHT22;8962;52.538;13.266;2022-11-15T15:05:35;11.70;99.90
17687;DHT22;8962;52.538;13.266;2022-11-15T15:08:03;11.60;99.90
17687;DHT22;8962;52.538;13.266;2022-11-15T15:10:32;11.60;99.90
17687;DHT22;8962;52.538;13.266;2022-11-15T15:13:04;11.50;99.90
17687;DHT22;8962;52.538;13.266;2022-11-15T15:15:34;11.40;99.90
17687;DHT22;8962;52.538;13.266;2022-11-15T15:18:02;11.30;99.90
17687;DHT22;8962;52.538;13.266;2022-11-15T15:20:30;11.20;99.90
17687;DHT22;8962;52.538;13.266;2022-11-15T15:22:59;11.10;99.90
17687;DHT22;8962;52.538;13.266;2022-11-15T15:25:28;11.00;99.90
17687;DHT22;8962;52.538;13.266;2022-11-15T15:27:56;10.90;99.90
17687;DHT22;8962;52.538;13.266;2022-11-15T15:30:24;10.80;99.90
17687;DHT22;8962;52.538;13.266;2022-11-15T15:32:51;10.80;99.90
17687;DHT22;8962;52.538;13.266;2022-11-15T15:35:19;10.80;99.90
17687;DHT22;8962;52.538;13.266;2022-11-15T15:37:48;10.80;99.90
17687;DHT22;8962;52.538;13.266;2022-11-15T15:40:19;10.70;99.90
17687;DHT22;8962;52.538;13.266;2022-11-15T15:42:46;10.70;99.90
17687;DHT22;8962;52.538;13.266;2022-11-15T15:45:16;10.70;99.90
17687;DHT22;8962;52.538;13.266;2022-11-15T15:47:44;10.60;99.90
17687;DHT22;8962;52.538;13.266;2022-11-15T15:50:21;10.60;99.90
17687;DHT22;8962;52.538;13.266;2022-11-15T15:52:48;10.50;99.90
17687;DHT22;8962;52.538;13.266;2022-11-15T15:55:16;10.50;99.90
17687;DHT22;8962;52.538;13.266;2022-11-15T15:57:44;10.40;99.90
17687;DHT22;8962;52.538;13.266;2022-11-15T16:00:13;10.40;99.90
17687;DHT22;8962;52.538;13.266;2022-11-15T16:02:41;10.30;99.90
17687;DHT22;8962;52.538;13.266;2022-11-15T16:05:08;10.20;99.90
17687;DHT22;8962;52.538;13.266;2022-11-15T16:07:36;10.10;99.90
17687;DHT22;8962;52.538;13.266;2022-11-15T16:10:20;10.00;99.90
17687;DHT22;8962;52.538;13.266;2022-11-15T16:12:48;10.00;99.90
17687;DHT22;8962;52.538;13.266;2022-11-15T16:15:16;10.00;99.90
17687;DHT22;8962;52.538;13.266;2022-11-15T16:17:48;9.90;99.90
17687;DHT22;8962;52.538;13.266;2022-11-15T16:20:36;10.00;99.90
17687;DHT22;8962;52.538;13.266;2022-11-15T16:23:06;10.00;99.90
17687;DHT22;8962;52.538;13.266;2022-11-15T16:25:40;9.90;99.90
17687;DHT22;8962;52.538;13.266;2022-11-15T16:28:21;9.90;99.90
17687;DHT22;8962;52.538;13.266;2022-11-15T16:30:58;9.80;99.90
17687;DHT22;8962;52.538;13.266;2022-11-15T16:33:26;9.80;99.90
17687;DHT22;8962;52.538;13.266;2022-11-15T16:35:53;9.70;99.90
17687;DHT22;8962;52.538;13.266;2022-11-15T16:38:20;9.70;99.90
17687;DHT22;8962;52.538;13.266;2022-11-15T16:40:47;9.70;99.90
17687;DHT22;8962;52.538;13.266;2022-11-15T16:43:21;9.60;99.90
17687;DHT22;8962;52.538;13.266;2022-11-15T16:45:48;9.70;99.90
17687;DHT22;8962;52.538;13.266;2022-11-15T16:48:21;9.70;99.90
17687;DHT22;8962;52.538;13.266;2022-11-15T16:50:50;9.70;99.90
17687;DHT22;8962;52.538;13.266;2022-11-15T16:53:20;9.70;99.90
17687;DHT22;8962;52.538;13.266;2022-11-15T16:55:48;9.70;99.90
17687;DHT22;8962;52.538;13.266;2022-11-15T16:58:15;9.70;99.90
17687;DHT22;8962;52.538;13.266;2022-11-15T17:00:43;9.70;99.90
17687;DHT22;8962;52.538;13.266;2022-11-15T17:03:10;9.70;99.90
17687;DHT22;8962;52.538;13.266;2022-11-15T17:05:38;9.70;99.90
17687;DHT22;8962;52.538;13.266;2022-11-15T17:08:07;9.80;99.90
17687;DHT22;8962;52.538;13.266;2022-11-15T17:10:38;9.80;99.90
17687;DHT22;8962;52.538;13.266;2022-11-15T17:13:06;9.80;99.90
17687;DHT22;8962;52.538;13.266;2022-11-15T17:15:34;9.80;99.90
17687;DHT22;8962;52.538;13.266;2022-11-15T17:18:02;9.70;99.90
17687;DHT22;8962;52.538;13.266;2022-11-15T17:20:29;9.60;99.90
17687;DHT22;8962;52.538;13.266;2022-11-15T17:22:56;9.60;99.90
17687;DHT22;8962;52.538;13.266;2022-11-15T17:25:23;9.60;99.90
17687;DHT22;8962;52.538;13.266;2022-11-15T17:27:51;9.60;99.90
17687;DHT22;8962;52.538;13.266;2022-11-15T17:30:18;9.50;99.90